sensor_id;sensor_type;location;lat;lon;timestamp;temperature;humidity
14521;DHT22;7347;50.844;4.490;2023-04-03T07:56:08;11.40;99.90
14521;DHT22;7347;50.844;4.490;2023-04-03T07:58:35;11.20;99.90
14521;DHT22;7347;50.844;4.490;2023-04-03T08:01:02;10.80;99.90
14521;DHT22;7347;50.844;4.490;2023-04-03T08:03:29;9.80;99.90
14521;DHT22;7347;50.844;4.490;2023-04-03T08:06:02;9.90;99.90
14521;DHT22;7347;50.844;4.490;2023-04-03T08:08:29;10.30;99.90
14521;DHT22;7347;50.844;4.490;2023-04-03T08:10:58;10.70;99.90
14521;DHT22;7347;50.844;4.490;2023-04-03T08:13:27;11.10;99.90
14521;DHT22;7347;50.844;4.490;2023-04-03T08:15:54;10.80;99.90
14521;DHT22;7347;50.844;4.490;2023-04-03T08:18:23;10.90;99.90
14521;DHT22;7347;50.844;4.490;2023-04-03T08:20:51;10.20;99.90
14521;DHT22;7347;50.844;4.490;2023-04-03T08:23:18;10.30;99.90
14521;DHT22;7347;50.844;4.490;2023-04-03T08:25:45;10.40;99.90
14521;DHT22;7347;50.844;4.490;2023-04-03T08:28:12;10.80;99.90
14521;DHT22;7347;50.844;4.490;2023-04-03T08:30:41;11.40;99.90
14521;DHT22;7347;50.844;4.490;2023-04-03T08:33:08;11.70;99.90
14521;DHT22;7347;50.844;4.490;2023-04-03T08:35:38;12.20;99.90
14521;DHT22;7347;50.844;4.490;2023-04-03T08:38:06;12.30;99.90
14521;DHT22;7347;50.844;4.490;2023-04-03T08:40:32;12.80;99.90
14521;DHT22;7347;50.844;4.490;2023-04-03T08:43:09;13.30;99.90
14521;DHT22;7347;50.844;4.490;2023-04-03T08:45:46;13.20;99.90
14521;DHT22;7347;50.844;4.490;2023-04-03T08:48:19;12.60;99.90
14521;DHT22;7347;50.844;4.490;2023-04-03T08:50:48;12.00;99.90
14521;DHT22;7347;50.844;4.490;2023-04-03T08:53:17;11.00;99.90
14521;DHT22;7347;50.844;4.490;2023-04-03T08:55:46;11.30;99.90
14521;DHT22;7347;50.844;4.490;2023-04-03T08:58:16;10.90;99.90
14521;DHT22;7347;50.844;4.490;2023-04-03T09:00:49;10.50;99.90
14521;DHT22;7347;50.844;4.490;2023-04-03T09:03:19;10.70;99.90
14521;DHT22;7347;50.844;4.490;2023-04-03T09:05:49;11.10;99.90
14521;DHT22;7347;50.844;4.490;2023-04-03T09:08:25;11.10;99.90
14521;DHT22;7347;50.844;4.490;2023-04-03T09:10:59;10.80;99.90
14521;DHT22;7347;50.844;4.490;2023-04-03T09:13:33;10.50;99.90
14521;DHT22;7347;50.844;4.490;2023-04-03T09:16:17;10.80;99.90
14521;DHT22;7347;50.844;4.490;2023-04-03T09:18:50;10.80;99.90
14521;DHT22;7347;50.844;4.490;2023-04-03T09:21:22;10.90;99.90
14521;DHT22;7347;50.844;4.490;2023-04-03T09:23:50;10.70;99.90
14521;DHT22;7347;50.844;4.490;2023-04-03T09:26:21;10.50;99.90
14521;DHT22;7347;50.844;4.490;2023-04-03T09:28:50;10.30;99.90
14521;DHT22;7347;50.844;4.490;2023-04-03T09:31:22;10.40;99.90
14521;DHT22;7347;50.844;4.490;2023-04-03T09:33:51;10.10;99.90
14521;DHT22;7347;50.844;4.490;2023-04-03T09:36:39;9.40;99.90
14521;DHT22;7347;50.844;4.490;2023-04-03T09:39:10;8.70;99.90
14521;DHT22;7347;50.844;4.490;2023-04-03T09:41:37;8.40;99.90
14521;DHT22;7347;50.844;4.490;2023-04-03T09:44:20;8.60;99.90
14521;DHT22;7347;50.844;4.490;2023-04-03T09:46:49;8.60;99.90
14521;DHT22;7347;50.844;4.490;2023-04-03T09:49:17;8.80;99.90
14521;DHT22;7347;50.844;4.490;2023-04-03T09:51:44;9.00;99.90
14521;DHT22;7347;50.844;4.490;2023-04-03T09:54:34;8.90;99.90
14521;DHT22;7347;50.844;4.490;2023-04-03T09:57:13;8.80;99.90
14521;DHT22;7347;50.844;4.490;2023-04-03T09:59:45;8.70;99.90
14521;DHT22;7347;50.844;4.490;2023-04-03T10:02:35;8.90;99.90
14521;DHT22;7347;50.844;4.490;2023-04-03T10:05:05;8.90;99.90
14521;DHT22;7347;50.844;4.490;2023-04-03T10:07:50;8.70;99.90
14521;DHT22;7347;50.844;4.490;2023-04-03T10:10:19;8.60;99.90
14521;DHT22;7347;50.844;4.490;2023-04-03T10:12:49;8.70;99.90
14521;DHT22;7347;50.844;4.490;2023-04-03T10:15:35;8.90;99.90
14521;DHT22;7347;50.844;4.490;2023-04-03T10:18:08;9.10;99.90
14521;DHT22;7347;50.844;4.490;2023-04-03T10:20:39;8.90;99.90
14521;DHT22;7347;50.844;4.490;2023-04-03T10:23:21;9.00;99.90
14521;DHT22;7347;50.844;4.490;2023-04-03T10:25:59;9.00;99.90
14521;DHT22;7347;50.844;4.490;2023-04-03T10:28:33;9.10;99.90
14521;DHT22;7347;50.844;4.490;2023-04-03T10:31:08;9.30;99.90
14521;DHT22;7347;50.844;4.490;2023-04-03T10:33:50;9.10;99.90
14521;DHT22;7347;50.844;4.490;2023-04-03T10:36:26;8.90;99.90
14521;DHT22;7347;50.844;4.490;2023-04-03T10:39:02;9.00;99.90
14521;DHT22;7347;50.844;4.490;2023-04-03T10:41:39;9.00;99.90
14521;DHT22;7347;50.844;4.490;2023-04-03T10:44:16;9.00;99.90
14521;DHT22;7347;50.844;4.490;2023-04-03T10:46:48;9.00;99.90
14521;DHT22;7347;50.844;4.490;2023-04-03T10:49:31;9.10;99.90
14521;DHT22;7347;50.844;4.490;2023-04-03T10:52:04;9.00;99.90
14521;DHT22;7347;50.844;4.490;2023-04-03T10:54:34;9.20;99.90
14521;DHT22;7347;50.844;4.490;2023-04-03T10:57:04;9.10;99.90
14521;DHT22;7347;50.844;4.490;2023-04-03T10:59:33;9.10;99.90
14521;DHT22;7347;50.844;4.490;2023-04-03T11:02:05;9.10;99.90
14521;DHT22;7347;50.844;4.490;2023-04-03T11:04:36;8.80;99.90
14521;DHT22;7347;50.844;4.490;2023-04-03T11:07:10;8.80;99.90
14521;DHT22;7347;50.844;4.490;2023-04-03T11:09:41;8.90;99.90
14521;DHT22;7347;50.844;4.490;2023-04-03T11:12:13;8.80;99.20
14521;DHT22;7347;50.844;4.490;2023-04-03T11:14:41;8.80;99.40
14521;DHT22;7347;50.844;4.490;2023-04-03T11:17:19;8.80;99.30
14521;DHT22;7347;50.844;4.490;2023-04-03T11:19:56;9.00;99.40
14521;DHT22;7347;50.844;4.490;2023-04-03T11:22:27;9.00;99.90
14521;DHT22;7347;50.844;4.490;2023-04-03T11:24:59;9.00;99.60
14521;DHT22;7347;50.844;4.490;2023-04-03T11:27:33;9.10;99.50
14521;DHT22;7347;50.844;4.490;2023-04-03T11:30:06;9.10;99.10
14521;DHT22;7347;50.844;4.490;2023-04-03T11:32:47;9.30;99.80
14521;DHT22;7347;50.844;4.490;2023-04-03T11:35:18;9.50;99.40
14521;DHT22;7347;50.844;4.490;2023-04-03T11:37:48;9.60;99.90
14521;DHT22;7347;50.844;4.490;2023-04-03T11:40:22;9.50;99.90
14521;DHT22;7347;50.844;4.490;2023-04-03T11:42:53;9.50;99.90
14521;DHT22;7347;50.844;4.490;2023-04-03T11:45:33;9.60;99.10
14521;DHT22;7347;50.844;4.490;2023-04-03T11:48:03;9.40;98.30
14521;DHT22;7347;50.844;4.490;2023-04-03T11:50:40;9.30;99.20
14521;DHT22;7347;50.844;4.490;2023-04-03T11:53:31;9.30;98.80
14521;DHT22;7347;50.844;4.490;2023-04-03T11:59:21;9.10;99.00
14521;DHT22;7347;50.844;4.490;2023-04-03T12:01:49;9.30;99.10
14521;DHT22;7347;50.844;4.490;2023-04-03T12:04:18;9.20;97.80
14521;DHT22;7347;50.844;4.490;2023-04-03T12:12:29;9.60;96.80
14521;DHT22;7347;50.844;4.490;2023-04-03T12:15:22;9.50;95.70
14521;DHT22;7347;50.844;4.490;2023-04-03T12:17:49;9.40;96.10
14521;DHT22;7347;50.844;4.490;2023-04-03T12:20:54;9.40;95.30
14521;DHT22;7347;50.844;4.490;2023-04-03T12:23:31;9.40;96.80
14521;DHT22;7347;50.844;4.490;2023-04-03T12:26:19;9.60;96.60
14521;DHT22;7347;50.844;4.490;2023-04-03T12:28:48;9.50;94.90
14521;DHT22;7347;50.844;4.490;2023-04-03T12:31:18;9.60;94.60
14521;DHT22;7347;50.844;4.490;2023-04-03T12:36:44;9.50;94.00
14521;DHT22;7347;50.844;4.490;2023-04-03T12:42:31;9.70;94.30
14521;DHT22;7347;50.844;4.490;2023-04-03T12:45:13;9.80;93.40
14521;DHT22;7347;50.844;4.490;2023-04-03T12:47:43;9.70;93.90
14521;DHT22;7347;50.844;4.490;2023-04-03T12:50:19;9.70;94.50
14521;DHT22;7347;50.844;4.490;2023-04-03T12:52:54;9.70;94.00
14521;DHT22;7347;50.844;4.490;2023-04-03T12:55:23;9.80;94.50
14521;DHT22;7347;50.844;4.490;2023-04-03T12:57:50;9.80;94.40
14521;DHT22;7347;50.844;4.490;2023-04-03T13:00:25;10.00;93.40
14521;DHT22;7347;50.844;4.490;2023-04-03T13:02:53;9.70;92.90
14521;DHT22;7347;50.844;4.490;2023-04-03T13:05:21;9.70;92.50
14521;DHT22;7347;50.844;4.490;2023-04-03T13:07:49;9.60;93.20
14521;DHT22;7347;50.844;4.490;2023-04-03T13:10:19;9.60;92.70
14521;DHT22;7347;50.844;4.490;2023-04-03T13:12:49;9.60;93.20
14521;DHT22;7347;50.844;4.490;2023-04-03T13:15:18;9.70;93.10
14521;DHT22;7347;50.844;4.490;2023-04-03T13:17:46;9.70;92.70
14521;DHT22;7347;50.844;4.490;2023-04-03T13:20:19;9.80;92.30
14521;DHT22;7347;50.844;4.490;2023-04-03T13:22:52;9.70;92.60
14521;DHT22;7347;50.844;4.490;2023-04-03T13:25:21;9.80;92.60
14521;DHT22;7347;50.844;4.490;2023-04-03T13:27:50;9.90;92.80
14521;DHT22;7347;50.844;4.490;2023-04-03T13:30:25;9.80;92.30
14521;DHT22;7347;50.844;4.490;2023-04-03T13:32:53;9.70;92.60
14521;DHT22;7347;50.844;4.490;2023-04-03T13:35:32;9.80;92.60
14521;DHT22;7347;50.844;4.490;2023-04-03T13:38:04;9.90;93.40
14521;DHT22;7347;50.844;4.490;2023-04-03T13:40:31;9.90;92.60
14521;DHT22;7347;50.844;4.490;2023-04-03T13:43:02;9.90;93.60
14521;DHT22;7347;50.844;4.490;2023-04-03T13:45:30;9.90;93.00
14521;DHT22;7347;50.844;4.490;2023-04-03T13:48:09;9.90;93.00
14521;DHT22;7347;50.844;4.490;2023-04-03T13:50:51;10.00;91.50
14521;DHT22;7347;50.844;4.490;2023-04-03T13:53:18;9.90;92.60
14521;DHT22;7347;50.844;4.490;2023-04-03T13:55:55;9.90;93.90
14521;DHT22;7347;50.844;4.490;2023-04-03T13:58:26;10.00;93.40
14521;DHT22;7347;50.844;4.490;2023-04-03T14:00:54;10.10;92.70
14521;DHT22;7347;50.844;4.490;2023-04-03T14:03:25;10.10;93.20
14521;DHT22;7347;50.844;4.490;2023-04-03T14:05:52;10.20;93.40
14521;DHT22;7347;50.844;4.490;2023-04-03T14:08:19;10.10;93.50
14521;DHT22;7347;50.844;4.490;2023-04-03T14:10:47;10.00;92.70
14521;DHT22;7347;50.844;4.490;2023-04-03T14:13:17;9.90;93.60
14521;DHT22;7347;50.844;4.490;2023-04-03T14:15:47;9.90;93.20
14521;DHT22;7347;50.844;4.490;2023-04-03T14:18:16;9.90;94.00
14521;DHT22;7347;50.844;4.490;2023-04-03T14:20:43;10.00;94.00
14521;DHT22;7347;50.844;4.490;2023-04-03T14:23:10;10.00;92.70
14521;DHT22;7347;50.844;4.490;2023-04-03T14:25:37;10.20;93.50
14521;DHT22;7347;50.844;4.490;2023-04-03T14:28:14;10.10;92.10
14521;DHT22;7347;50.844;4.490;2023-04-03T14:30:41;10.10;93.10
14521;DHT22;7347;50.844;4.490;2023-04-03T14:33:13;10.20;93.00
14521;DHT22;7347;50.844;4.490;2023-04-03T14:35:41;10.10;92.00
14521;DHT22;7347;50.844;4.490;2023-04-03T14:38:20;10.30;93.10
14521;DHT22;7347;50.844;4.490;2023-04-03T14:40:48;10.30;92.40
14521;DHT22;7347;50.844;4.490;2023-04-03T14:43:14;10.30;91.90
14521;DHT22;7347;50.844;4.490;2023-04-03T14:45:42;10.30;91.60
14521;DHT22;7347;50.844;4.490;2023-04-03T14:48:17;10.20;91.00
14521;DHT22;7347;50.844;4.490;2023-04-03T14:50:45;10.10;91.70
14521;DHT22;7347;50.844;4.490;2023-04-03T14:53:12;10.20;90.90
14521;DHT22;7347;50.844;4.490;2023-04-03T14:55:40;10.30;91.20
14521;DHT22;7347;50.844;4.490;2023-04-03T14:58:11;10.50;92.00
14521;DHT22;7347;50.844;4.490;2023-04-03T15:00:38;10.40;92.00
14521;DHT22;7347;50.844;4.490;2023-04-03T15:03:05;10.50;91.20
14521;DHT22;7347;50.844;4.490;2023-04-03T15:05:35;10.40;91.30
14521;DHT22;7347;50.844;4.490;2023-04-03T15:08:02;10.30;90.50
14521;DHT22;7347;50.844;4.490;2023-04-03T15:10:30;10.30;90.90
14521;DHT22;7347;50.844;4.490;2023-04-03T15:12:58;10.30;91.50
14521;DHT22;7347;50.844;4.490;2023-04-03T15:15:28;10.20;91.50
14521;DHT22;7347;50.844;4.490;2023-04-03T15:17:56;10.20;92.00
14521;DHT22;7347;50.844;4.490;2023-04-03T15:20:25;10.20;92.10
14521;DHT22;7347;50.844;4.490;2023-04-03T15:22:54;10.30;92.70
14521;DHT22;7347;50.844;4.490;2023-04-03T15:25:22;10.30;91.90
14521;DHT22;7347;50.844;4.490;2023-04-03T15:27:49;10.30;92.50
14521;DHT22;7347;50.844;4.490;2023-04-03T15:30:18;10.10;93.30
14521;DHT22;7347;50.844;4.490;2023-04-03T15:32:45;10.10;92.00
14521;DHT22;7347;50.844;4.490;2023-04-03T15:35:12;10.00;91.20
14521;DHT22;7347;50.844;4.490;2023-04-03T15:37:39;10.10;92.10
14521;DHT22;7347;50.844;4.490;2023-04-03T15:40:08;10.10;92.60
14521;DHT22;7347;50.844;4.490;2023-04-03T15:42:35;10.10;92.00
14521;DHT22;7347;50.844;4.490;2023-04-03T15:45:02;9.90;93.00
14521;DHT22;7347;50.844;4.490;2023-04-03T15:47:29;10.00;92.90
14521;DHT22;7347;50.844;4.490;2023-04-03T15:49:56;10.10;92.50
14521;DHT22;7347;50.844;4.490;2023-04-03T15:52:23;10.20;93.40
14521;DHT22;7347;50.844;4.490;2023-04-03T15:54:50;10.20;93.50
14521;DHT22;7347;50.844;4.490;2023-04-03T15:57:18;10.10;93.80
14521;DHT22;7347;50.844;4.490;2023-04-03T15:59:45;10.00;93.90
14521;DHT22;7347;50.844;4.490;2023-04-03T16:02:12;10.00;94.50
14521;DHT22;7347;50.844;4.490;2023-04-03T16:04:40;10.20;93.20
14521;DHT22;7347;50.844;4.490;2023-04-03T16:07:07;10.10;93.50
14521;DHT22;7347;50.844;4.490;2023-04-03T16:09:34;10.00;94.00
14521;DHT22;7347;50.844;4.490;2023-04-03T16:12:02;9.90;95.20
14521;DHT22;7347;50.844;4.490;2023-04-03T16:14:30;9.90;95.20
14521;DHT22;7347;50.844;4.490;2023-04-03T16:16:58;9.80;95.00
14521;DHT22;7347;50.844;4.490;2023-04-03T16:19:25;9.90;95.30
14521;DHT22;7347;50.844;4.490;2023-04-03T16:21:53;9.90;95.80
14521;DHT22;7347;50.844;4.490;2023-04-03T16:24:20;9.90;95.50
14521;DHT22;7347;50.844;4.490;2023-04-03T16:26:47;9.80;95.10
14521;DHT22;7347;50.844;4.490;2023-04-03T16:29:13;9.80;95.50
14521;DHT22;7347;50.844;4.490;2023-04-03T16:31:42;9.80;95.60
14521;DHT22;7347;50.844;4.490;2023-04-03T16:34:08;9.80;95.40
14521;DHT22;7347;50.844;4.490;2023-04-03T16:36:36;9.70;95.70
14521;DHT22;7347;50.844;4.490;2023-04-03T16:39:04;9.60;95.90
14521;DHT22;7347;50.844;4.490;2023-04-03T16:41:31;9.70;96.10
14521;DHT22;7347;50.844;4.490;2023-04-03T16:43:58;9.60;96.50
14521;DHT22;7347;50.844;4.490;2023-04-03T16:46:25;9.60;96.00
14521;DHT22;7347;50.844;4.490;2023-04-03T16:48:53;9.70;96.10
14521;DHT22;7347;50.844;4.490;2023-04-03T16:51:20;9.70;95.90
14521;DHT22;7347;50.844;4.490;2023-04-03T16:53:48;9.60;96.00
14521;DHT22;7347;50.844;4.490;2023-04-03T16:56:15;9.70;96.60
14521;DHT22;7347;50.844;4.490;2023-04-03T16:58:42;9.60;96.00
14521;DHT22;7347;50.844;4.490;2023-04-03T17:01:10;9.50;96.20
14521;DHT22;7347;50.844;4.490;2023-04-03T17:03:37;9.40;96.30
14521;DHT22;7347;50.844;4.490;2023-04-03T17:06:05;9.40;96.30
14521;DHT22;7347;50.844;4.490;2023-04-03T17:08:33;9.50;95.90
14521;DHT22;7347;50.844;4.490;2023-04-03T17:11:00;9.40;95.80
14521;DHT22;7347;50.844;4.490;2023-04-03T17:13:26;9.40;96.50
14521;DHT22;7347;50.844;4.490;2023-04-03T17:15:57;9.40;96.60
14521;DHT22;7347;50.844;4.490;2023-04-03T17:18:25;9.30;96.80
14521;DHT22;7347;50.844;4.490;2023-04-03T17:20:53;9.30;96.70
14521;DHT22;7347;50.844;4.490;2023-04-03T17:23:21;9.30;96.70
14521;DHT22;7347;50.844;4.490;2023-04-03T17:25:48;9.40;96.60
14521;DHT22;7347;50.844;4.490;2023-04-03T17:28:14;9.30;96.20
14521;DHT22;7347;50.844;4.490;2023-04-03T17:30:41;9.20;96.50
14521;DHT22;7347;50.844;4.490;2023-04-03T17:33:08;9.20;96.40
14521;DHT22;7347;50.844;4.490;2023-04-03T17:35:35;9.00;96.60
14521;DHT22;7347;50.844;4.490;2023-04-03T17:38:02;9.00;96.50
14521;DHT22;7347;50.844;4.490;2023-04-03T17:40:30;9.00;96.90
14521;DHT22;7347;50.844;4.490;2023-04-03T17:42:57;8.80;96.70
14521;DHT22;7347;50.844;4.490;2023-04-03T17:45:24;8.80;96.70
14521;DHT22;7347;50.844;4.490;2023-04-03T17:47:51;8.70;96.50
14521;DHT22;7347;50.844;4.490;2023-04-03T17:50:20;8.70;97.20
14521;DHT22;7347;50.844;4.490;2023-04-03T17:52:47;8.60;97.50
14521;DHT22;7347;50.844;4.490;2023-04-03T17:55:14;8.70;97.30
14521;DHT22;7347;50.844;4.490;2023-04-03T17:57:43;8.60;97.40
14521;DHT22;7347;50.844;4.490;2023-04-03T18:00:11;8.40;97.70
14521;DHT22;7347;50.844;4.490;2023-04-03T18:02:38;8.40;97.40
14521;DHT22;7347;50.844;4.490;2023-04-03T18:05:06;8.40;97.30
14521;DHT22;7347;50.844;4.490;2023-04-03T18:07:33;8.30;97.40
14521;DHT22;7347;50.844;4.490;2023-04-03T18:10:00;8.30;97.40
14521;DHT22;7347;50.844;4.490;2023-04-03T18:12:30;8.20;97.60
14521;DHT22;7347;50.844;4.490;2023-04-03T18:14:59;8.10;97.50
14521;DHT22;7347;50.844;4.490;2023-04-03T18:17:26;8.10;97.50
14521;DHT22;7347;50.844;4.490;2023-04-03T18:19:53;8.00;97.60
14521;DHT22;7347;50.844;4.490;2023-04-03T18:22:22;7.90;97.80
14521;DHT22;7347;50.844;4.490;2023-04-03T18:24:50;7.90;97.90
14521;DHT22;7347;50.844;4.490;2023-04-03T18:27:19;7.80;98.30
14521;DHT22;7347;50.844;4.490;2023-04-03T18:29:49;7.90;98.20
14521;DHT22;7347;50.844;4.490;2023-04-03T18:32:19;7.90;97.80
14521;DHT22;7347;50.844;4.490;2023-04-03T18:34:47;7.80;98.00
14521;DHT22;7347;50.844;4.490;2023-04-03T18:37:14;7.60;98.10
14521;DHT22;7347;50.844;4.490;2023-04-03T18:39:41;7.60;98.30
14521;DHT22;7347;50.844;4.490;2023-04-03T18:42:10;7.60;98.10
14521;DHT22;7347;50.844;4.490;2023-04-03T18:44:38;7.50;98.00
14521;DHT22;7347;50.844;4.490;2023-04-03T18:47:06;7.40;97.80
14521;DHT22;7347;50.844;4.490;2023-04-03T18:49:37;7.40;98.00
14521;DHT22;7347;50.844;4.490;2023-04-03T18:52:04;7.40;98.10
14521;DHT22;7347;50.844;4.490;2023-04-03T18:54:31;7.30;98.20
14521;DHT22;7347;50.844;4.490;2023-04-03T18:56:58;7.30;98.20
14521;DHT22;7347;50.844;4.490;2023-04-03T18:59:25;7.20;98.70
14521;DHT22;7347;50.844;4.490;2023-04-03T19:01:53;7.20;98.20
14521;DHT22;7347;50.844;4.490;2023-04-03T19:04:20;7.10;98.30
14521;DHT22;7347;50.844;4.490;2023-04-03T19:06:49;7.20;98.20
14521;DHT22;7347;50.844;4.490;2023-04-03T19:09:16;7.10;98.40
14521;DHT22;7347;50.844;4.490;2023-04-03T19:11:42;7.00;98.60
14521;DHT22;7347;50.844;4.490;2023-04-03T19:14:09;7.00;98.50
14521;DHT22;7347;50.844;4.490;2023-04-03T19:16:36;7.00;98.50
14521;DHT22;7347;50.844;4.490;2023-04-03T19:19:03;6.90;98.70
14521;DHT22;7347;50.844;4.490;2023-04-03T19:21:30;6.90;98.80
14521;DHT22;7347;50.844;4.490;2023-04-03T19:23:58;6.90;98.70
14521;DHT22;7347;50.844;4.490;2023-04-03T19:26:25;6.90;98.90
14521;DHT22;7347;50.844;4.490;2023-04-03T19:28:52;6.80;98.90
14521;DHT22;7347;50.844;4.490;2023-04-03T19:31:20;6.80;99.20
14521;DHT22;7347;50.844;4.490;2023-04-03T19:33:47;6.80;99.10
14521;DHT22;7347;50.844;4.490;2023-04-03T19:36:15;6.70;99.30
14521;DHT22;7347;50.844;4.490;2023-04-03T19:38:43;6.60;99.50
14521;DHT22;7347;50.844;4.490;2023-04-03T19:41:13;6.60;99.90
14521;DHT22;7347;50.844;4.490;2023-04-03T19:43:41;6.50;99.90
14521;DHT22;7347;50.844;4.490;2023-04-03T19:46:08;6.40;99.90
14521;DHT22;7347;50.844;4.490;2023-04-03T19:48:35;6.40;99.90
14521;DHT22;7347;50.844;4.490;2023-04-03T19:51:03;6.40;99.90
14521;DHT22;7347;50.844;4.490;2023-04-03T19:53:30;6.40;99.90
14521;DHT22;7347;50.844;4.490;2023-04-03T19:55:57;6.30;99.90
14521;DHT22;7347;50.844;4.490;2023-04-03T19:58:26;6.30;99.90
14521;DHT22;7347;50.844;4.490;2023-04-03T20:00:54;6.30;99.90
14521;DHT22;7347;50.844;4.490;2023-04-03T20:03:21;6.20;99.90
14521;DHT22;7347;50.844;4.490;2023-04-03T20:05:48;6.20;99.90
14521;DHT22;7347;50.844;4.490;2023-04-03T20:08:16;6.10;99.90
14521;DHT22;7347;50.844;4.490;2023-04-03T20:10:43;6.00;99.90
14521;DHT22;7347;50.844;4.490;2023-04-03T20:13:10;6.00;99.90
14521;DHT22;7347;50.844;4.490;2023-04-03T20:15:40;5.90;99.90
14521;DHT22;7347;50.844;4.490;2023-04-03T20:18:10;5.80;99.90
14521;DHT22;7347;50.844;4.490;2023-04-03T20:20:42;5.70;99.90
14521;DHT22;7347;50.844;4.490;2023-04-03T20:23:11;5.70;99.90
14521;DHT22;7347;50.844;4.490;2023-04-03T20:25:39;5.60;99.90
14521;DHT22;7347;50.844;4.490;2023-04-03T20:28:07;5.70;99.90
14521;DHT22;7347;50.844;4.490;2023-04-03T20:30:34;5.60;99.90
14521;DHT22;7347;50.844;4.490;2023-04-03T20:33:03;5.70;99.90
14521;DHT22;7347;50.844;4.490;2023-04-03T20:35:30;5.60;99.90
14521;DHT22;7347;50.844;4.490;2023-04-03T20:37:57;5.60;99.90
14521;DHT22;7347;50.844;4.490;2023-04-03T20:40:25;5.60;99.90
14521;DHT22;7347;50.844;4.490;2023-04-03T20:42:52;5.60;99.90
14521;DHT22;7347;50.844;4.490;2023-04-03T20:45:19;5.60;99.90
14521;DHT22;7347;50.844;4.490;2023-04-03T20:47:46;5.60;99.90
14521;DHT22;7347;50.844;4.490;2023-04-03T20:50:15;5.50;99.90
14521;DHT22;7347;50.844;4.490;2023-04-03T20:52:41;5.40;99.90
14521;DHT22;7347;50.844;4.490;2023-04-03T20:55:09;5.40;99.90
14521;DHT22;7347;50.844;4.490;2023-04-03T20:57:35;5.40;99.90
14521;DHT22;7347;50.844;4.490;2023-04-03T21:00:03;5.30;99.90
14521;DHT22;7347;50.844;4.490;2023-04-03T21:02:31;5.30;99.90
14521;DHT22;7347;50.844;4.490;2023-04-03T21:04:59;5.40;99.90
14521;DHT22;7347;50.844;4.490;2023-04-03T21:19:12;5.20;99.90
14521;DHT22;7347;50.844;4.490;2023-04-03T21:21:40;5.20;99.90
14521;DHT22;7347;50.844;4.490;2023-04-03T21:24:08;5.10;99.90
14521;DHT22;7347;50.844;4.490;2023-04-03T21:26:37;5.10;99.90
14521;DHT22;7347;50.844;4.490;2023-04-03T21:29:05;5.10;99.90
14521;DHT22;7347;50.844;4.490;2023-04-03T21:31:50;5.10;99.90
14521;DHT22;7347;50.844;4.490;2023-04-03T21:34:20;5.10;99.90
14521;DHT22;7347;50.844;4.490;2023-04-03T21:36:48;5.00;99.90
14521;DHT22;7347;50.844;4.490;2023-04-03T21:39:15;4.90;99.90
14521;DHT22;7347;50.844;4.490;2023-04-03T21:41:43;5.00;99.90
14521;DHT22;7347;50.844;4.490;2023-04-03T21:44:10;4.90;99.90
